D/T METAR WX W/DIR W/SPE G/SPE TEMP DEWP
17/05/19 17:50 EGSC 171650Z 05007KT 010V080 9000 FEW011 BKN013 12/09 Q1008 NE (50°) 8.1mph 12°C 9°C
17/05/19 17:20 EGSC 171620Z 05008KT 9000 BKN014 11/09 Q1008 NE (50°) 9.2mph 11°C 9°C
17/05/19 16:50 EGSC 171550Z 06007KT 9000 BKN012 12/09 Q1008 ENE (60°) 8.1mph 12°C 9°C
17/05/19 16:20 EGSC 171520Z 05010KT 020V080 9000 FEW007 BKN012 12/09 Q1008 NE (50°) 11.5mph 12°C 9°C
17/05/19 15:50 EGSC 171450Z 05008KT 7000 FEW005 BKN012 11/09 Q1008 NE (50°) 9.2mph 11°C 9°C
17/05/19 15:20 EGSC 171420Z 04010KT 3900 -DZ SCT003 BKN013 11/10 Q1008 -DZ NE (40°) 11.5mph 11°C 10°C
17/05/19 14:50 EGSC 171350Z 05006KT 020V080 9000 BKN016 13/09 Q1008 NE (50°) 6.9mph 13°C 9°C
17/05/19 14:20 EGSC 171320Z 05005KT 030V090 9000 BKN016 13/10 Q1008 NE (50°) 5.8mph 13°C 10°C
17/05/19 13:50 EGSC 171250Z 05007KT 9000 BKN016 13/10 Q1009 NE (50°) 8.1mph 13°C 10°C
17/05/19 13:20 EGSC 171220Z 04010KT 9999 BKN016 13/09 Q1009 NE (40°) 11.5mph 13°C 9°C
17/05/19 12:50 EGSC 171150Z 05008KT 020V100 9999 BKN018 14/09 Q1009 NE (50°) 9.2mph 14°C 9°C
17/05/19 12:20 EGSC 171120Z 05008KT 020V090 9999 BKN017 13/09 Q1009 NE (50°) 9.2mph 13°C 9°C
17/05/19 11:50 EGSC 171050Z 04009KT 9999 BKN016 13/09 Q1009 NE (40°) 10.4mph 13°C 9°C
17/05/19 11:20 EGSC 171020Z 04009KT 9999 BKN016 13/09 Q1009 NE (40°) 10.4mph 13°C 9°C
17/05/19 10:50 EGSC 170950Z 04009KT 010V080 9999 FEW014 BKN018 13/09 Q1009 NE (40°) 10.4mph 13°C 9°C
17/05/19 10:20 EGSC 170920Z 04008KT 9999 FEW014 BKN018 12/09 Q1009 NE (40°) 9.2mph 12°C 9°C
17/05/19 09:50 EGSC 170850Z 05008KT 020V080 9999 FEW014 BKN021 13/09 Q1009 NE (50°) 9.2mph 13°C 9°C
17/05/19 09:20 EGSC 170820Z 05010KT 020V090 9999 FEW012 BKN022 13/09 Q1010 NE (50°) 11.5mph 13°C 9°C
17/05/19 08:20 EGSC 170720Z 04009KT 9999 BKN012 12/09 Q1010 NE (40°) 10.4mph 12°C 9°C
17/05/19 07:20 EGSC 170620Z 03008KT 9999 BKN018 11/08 Q1010 NNE (30°) 9.2mph 11°C 8°C
16/05/19 17:50 EGSC 161650Z 07011KT 9999 FEW045 14/03 Q1017 ENE (70°) 12.7mph 14°C 3°C
16/05/19 17:20 EGSC 161620Z 07008KT 030V100 9999 FEW045 15/04 Q1017 ENE (70°) 9.2mph 15°C 4°C
16/05/19 16:50 EGSC 161550Z 08010G20KT 030V120 9999 FEW045 15/04 Q1017 E (80°) 11.5mph 23.0mph 15°C 4°C
16/05/19 16:20 EGSC 161520Z 06011KT 040V120 9999 FEW045 15/04 Q1018 ENE (60°) 12.7mph 15°C 4°C
16/05/19 15:50 EGSC 161450Z 09010KT 9999 FEW049 16/04 Q1018 E (90°) 11.5mph 16°C 4°C
16/05/19 15:20 EGSC 161420Z 07011KT 030V130 9999 FEW049 15/03 Q1018 ENE (70°) 12.7mph 15°C 3°C
16/05/19 14:50 EGSC 161350Z 10008KT 050V160 9999 FEW046 17/04 Q1019 E (100°) 9.2mph 17°C 4°C
16/05/19 14:20 EGSC 161320Z 09009KT 040V150 9999 FEW046 17/03 Q1019 E (90°) 10.4mph 17°C 3°C
16/05/19 13:50 EGSC 161250Z 10009KT 9999 FEW047 17/03 Q1019 E (100°) 10.4mph 17°C 3°C
16/05/19 13:20 EGSC 161220Z 07010KT 9999 FEW047 17/03 Q1020 ENE (70°) 11.5mph 17°C 3°C
16/05/19 12:50 EGSC 161150Z 09008KT 9999 FEW047 17/05 Q1020 E (90°) 9.2mph 17°C 5°C
16/05/19 12:20 EGSC 161120Z 07008KT 9999 SCT045 16/05 Q1020 ENE (70°) 9.2mph 16°C 5°C
16/05/19 11:50 EGSC 161050Z 09007KT 040V140 9999 FEW042 16/05 Q1020 E (90°) 8.1mph 16°C 5°C
16/05/19 11:20 EGSC 161020Z 10007KT 050V150 9999 FEW035 16/06 Q1020 E (100°) 8.1mph 16°C 6°C
16/05/19 10:50 EGSC 160950Z 08007KT 030V120 9999 FEW032 15/07 Q1021 E (80°) 8.1mph 15°C 7°C
16/05/19 10:20 EGSC 160920Z 11006KT 060V170 9999 FEW032 15/08 Q1021 ESE (110°) 6.9mph 15°C 8°C
16/05/19 09:50 EGSC 160850Z 08007KT 040V150 9999 FEW030 15/08 Q1021 E (80°) 8.1mph 15°C 8°C
16/05/19 09:20 EGSC 160820Z 06007KT 030V100 CAVOK 13/08 Q1021 ENE (60°) 8.1mph 13°C 8°C
16/05/19 08:50 EGSC 160750Z 07006KT CAVOK 13/08 Q1021 ENE (70°) 6.9mph 13°C 8°C
16/05/19 08:20 EGSC 160720Z 06004KT CAVOK 11/08 Q1022 ENE (60°) 4.6mph 11°C 8°C
16/05/19 07:50 EGSC 160650Z 03005KT 010V070 CAVOK 09/07 Q1022 NNE (30°) 5.8mph 9°C 7°C
15/05/19 17:50 EGSC 151650Z 07005KT 9999 FEW048 18/07 Q1024 ENE (70°) 5.8mph 18°C 7°C
15/05/19 17:20 EGSC 151620Z 10006KT 9999 FEW048 19/07 Q1024 E (100°) 6.9mph 19°C 7°C
15/05/19 16:50 EGSC 151550Z 04005KT 360V080 9999 FEW048 19/06 Q1024 NE (40°) 5.8mph 19°C 6°C
15/05/19 16:20 EGSC 151520Z 11004KT 020V180 CAVOK 19/06 Q1025 ESE (110°) 4.6mph 19°C 6°C
15/05/19 15:50 EGSC 151450Z 03004KT 340V120 9999 FEW048 18/06 Q1025 NNE (30°) 4.6mph 18°C 6°C
15/05/19 15:20 EGSC 151420Z VRB03KT 9999 FEW048 18/06 Q1025 N (0°) 3.5mph 18°C 6°C
15/05/19 14:50 EGSC 151350Z 03004KT 330V070 9999 FEW048 18/06 Q1026 NNE (30°) 4.6mph 18°C 6°C